Time;durP1;ratioP1;P1;durP2;ratioP2;P2;SDS_P1;SDS_P2;PMS_P1;PMS_P2;Temp;Humidity;BMP_temperature;BMP_pressure;BME280_temperature;BME280_humidity;BME280_pressure;Samples;Min_cycle;Max_cycle;Signal;HPM_P1;HPM_P2
2022/02/05 00:02:57;;;;;;;;;2.00;2.00;;;;;5.54;78.66;102054.19;5046444;28;45393;-68
2022/02/05 00:05:35;;;;;;;;;4.25;4.25;;;;;5.54;78.92;102049.84;5030475;28;45564;-68
2022/02/05 00:15:38;;;;;;;;;2.00;2.00;;;;;5.53;78.44;102060.25;5053158;28;45568;-67
2022/02/05 00:40:29;;;;;;;;;4.50;2.00;;;;;5.34;79.29;102062.88;5011658;28;45433;-68
2022/02/05 00:42:54;;;;;;;;;5.00;5.00;;;;;5.34;79.83;102064.63;5010424;28;45503;-68
2022/02/05 00:45:20;;;;;;;;;4.25;4.00;;;;;5.31;80.05;102060.25;5010374;28;45488;-68
2022/02/05 00:47:46;;;;;;;;;7.25;5.00;;;;;5.27;80.12;102055.91;5008854;28;45335;-68
2022/02/05 00:50:15;;;;;;;;;4.50;2.25;;;;;5.22;79.91;102053.34;5011688;28;45451;-68
2022/02/05 00:52:44;;;;;;;;;2.50;1.75;;;;;5.20;80.35;102060.25;5012049;28;45633;-68
2022/02/05 00:55:21;;;;;;;;;5.00;4.25;;;;;5.15;80.17;102063.72;5012974;28;45533;-68
2022/02/05 00:57:46;;;;;;;;;6.50;5.50;;;;;5.15;80.12;102066.34;5032463;28;45484;-68
2022/02/05 01:00:15;;;;;;;;;3.00;3.00;;;;;5.13;80.22;102060.28;5053504;28;45472;-68
2022/02/05 01:02:40;;;;;;;;;3.00;2.50;;;;;5.09;80.26;102062.00;5053789;28;46758;-68
2022/02/05 01:05:06;;;;;;;;;7.50;5.00;;;;;5.08;80.73;102067.22;5049258;28;45592;-68
2022/02/05 01:07:31;;;;;;;;;9.25;5.00;;;;;5.07;80.54;102058.53;5051118;28;45474;-68
2022/02/05 01:09:57;;;;;;;;;5.50;5.25;;;;;5.03;81.19;102068.94;5053726;28;45417;-68
2022/02/05 01:12:25;;;;;;;;;10.00;5.00;;;;;5.01;80.68;102068.06;5053884;28;46237;-68
2022/02/05 01:14:54;;;;;;;;;9.00;5.00;;;;;5.00;80.92;102075.00;5052694;28;45534;-68
2022/02/05 01:17:26;;;;;;;;;4.00;4.00;;;;;4.95;81.04;102067.19;5054572;28;45466;-68
2022/02/05 01:22:17;;;;;;;;;5.00;4.00;;;;;4.93;81.41;102086.28;5050358;28;45274;-68
2022/02/05 01:24:45;;;;;;;;;8.00;7.00;;;;;4.89;81.44;102088.00;5052239;28;45422;-68
2022/02/05 01:27:26;;;;;;;;;8.25;5.00;;;;;4.86;81.35;102095.84;5053969;28;45528;-68
2022/02/05 01:30:12;;;;;;;;;5.75;4.50;;;;;4.82;80.96;102104.50;5053994;28;45392;-68
2022/02/05 01:32:41;;;;;;;;;5.50;5.00;;;;;4.78;81.32;102100.16;5053696;28;47029;-68
2022/02/05 01:35:15;;;;;;;;;7.50;7.50;;;;;4.74;81.52;102106.19;5053267;28;45965;-68
2022/02/05 01:54:28;;;;;;;;;7.00;7.00;;;;;4.57;82.38;102120.91;5041338;28;46211;-68
2022/02/05 01:57:03;;;;;;;;;12.75;9.00;;;;;4.57;82.26;102126.13;5026475;28;45587;-68
2022/02/05 02:04:50;;;;;;;;;10.25;8.50;;;;;4.47;82.23;102134.75;5038056;28;45493;-68
2022/02/05 02:18:25;;;;;;;;;5.50;4.50;;;;;4.47;82.39;102150.38;4936680;28;45576;-68
2022/02/05 02:31:21;;;;;;;;;8.75;7.75;;;;;4.38;82.34;102153.78;4974620;28;45468;-68
2022/02/05 02:33:51;;;;;;;;;5.75;5.00;;;;;4.33;82.26;102145.97;4975352;28;45386;-68
2022/02/05 02:36:37;;;;;;;;;10.00;6.25;;;;;4.32;82.35;102151.16;4977619;28;46451;-68
2022/02/05 02:39:27;;;;;;;;;11.25;9.25;;;;;4.28;82.28;102160.69;4984263;28;45378;-68
2022/02/05 02:42:05;;;;;;;;;8.25;7.25;;;;;4.26;82.30;102156.31;4976439;28;45600;-68
2022/02/05 02:44:30;;;;;;;;;14.25;9.00;;;;;4.25;82.46;102157.19;4976306;28;45482;-68
2022/02/05 02:46:56;;;;;;;;;12.50;9.50;;;;;4.24;82.38;102161.53;4990558;28;45457;-68
2022/02/05 02:57:39;;;;;;;;;11.00;10.00;;;;;4.15;82.71;102164.94;5052332;28;45753;-68
2022/02/05 03:00:10;;;;;;;;;11.75;8.75;;;;;4.12;82.71;102169.22;5051935;28;45650;-68
2022/02/05 03:02:35;;;;;;;;;9.50;9.50;;;;;4.08;82.55;102163.16;5052809;28;45623;-68
2022/02/05 03:05:01;;;;;;;;;10.00;8.67;;;;;4.07;82.67;102165.72;5042112;28;45519;-68
2022/02/05 03:07:26;;;;;;;;;10.00;7.50;;;;;4.08;82.47;102172.69;5053877;28;53867;-68
2022/02/05 03:09:54;;;;;;;;;9.50;8.00;;;;;4.05;82.55;102172.66;5052515;28;45465;-68
2022/02/05 03:12:20;;;;;;;;;12.75;9.25;;;;;4.04;82.43;102177.00;5052428;28;45483;-68
2022/02/05 03:14:46;;;;;;;;;15.50;7.75;;;;;4.03;82.74;102177.00;5052131;28;45536;-68
2022/02/05 03:17:16;;;;;;;;;8.75;6.25;;;;;4.02;83.35;102177.84;5050050;28;46399;-68
2022/02/05 03:19:48;;;;;;;;;13.00;7.75;;;;;4.02;83.15;102183.03;5053215;28;45851;-68
2022/02/05 03:22:15;;;;;;;;;9.25;8.50;;;;;4.01;82.86;102195.19;5047233;28;45387;-68
2022/02/05 03:24:41;;;;;;;;;8.00;7.75;;;;;3.95;82.99;102184.72;5050952;28;45705;-68
2022/02/05 03:27:07;;;;;;;;;8.00;7.00;;;;;3.96;82.83;102196.88;5052098;28;45497;-68
2022/02/05 03:29:33;;;;;;;;;9.50;7.00;;;;;3.94;83.12;102188.19;5050868;28;45862;-68
2022/02/05 03:31:58;;;;;;;;;11.50;9.50;;;;;3.92;82.93;102196.00;5051512;28;45709;-68
2022/02/05 03:34:23;;;;;;;;;13.50;9.00;;;;;3.89;82.93;102200.28;5053781;28;45331;-68
2022/02/05 03:36:49;;;;;;;;;11.50;7.75;;;;;3.87;83.12;102208.09;5051591;28;45431;-68
2022/02/05 03:39:14;;;;;;;;;13.00;9.00;;;;;3.87;83.10;102204.63;5047404;28;45294;-69
2022/02/05 03:41:39;;;;;;;;;16.25;8.25;;;;;3.83;83.34;102200.25;5052038;28;45300;-68
2022/02/05 03:44:05;;;;;;;;;14.75;8.75;;;;;3.83;83.40;102208.91;5052282;28;45388;-68
2022/02/05 03:46:30;;;;;;;;;15.50;13.50;;;;;3.84;83.70;102209.78;5056444;28;46473;-68
2022/02/05 03:48:56;;;;;;;;;9.00;7.00;;;;;3.78;83.49;102202.81;5055780;28;45440;-68
2022/02/05 03:51:22;;;;;;;;;15.75;7.75;;;;;3.77;83.57;102205.41;5055321;28;45370;-68
2022/02/05 03:53:47;;;;;;;;;11.00;8.00;;;;;3.73;83.60;102217.50;5055203;28;45546;-68
2022/02/05 03:56:12;;;;;;;;;11.25;6.50;;;;;3.73;83.28;102216.63;5050103;28;46215;-68
2022/02/05 03:58:38;;;;;;;;;14.00;11.00;;;;;3.71;83.36;102215.72;5056693;28;45272;-68
2022/02/05 04:01:03;;;;;;;;;10.75;7.25;;;;;3.74;83.91;102216.63;5055273;28;45550;-68
2022/02/05 04:03:28;;;;;;;;;12.00;8.50;;;;;3.74;83.70;102218.38;5054887;28;45538;-68
2022/02/05 04:05:54;;;;;;;;;11.50;7.00;;;;;3.76;83.97;102225.34;5054898;28;47030;-68
2022/02/05 04:08:19;;;;;;;;;10.25;5.50;;;;;3.76;83.58;102219.25;5053450;28;45355;-68
2022/02/05 04:10:58;;;;;;;;;7.00;5.00;;;;;3.72;83.59;102212.28;5055390;28;45504;-68
2022/02/05 04:18:32;;;;;;;;;4.33;4.33;;;;;3.82;83.70;102241.00;5055145;28;45405;-68
2022/02/05 04:20:58;;;;;;;;;8.33;5.33;;;;;3.83;83.78;102229.72;5054598;28;49414;-68
2022/02/05 04:23:24;;;;;;;;;7.33;4.00;;;;;3.83;83.67;102224.53;5054399;28;45671;-68
2022/02/05 04:25:49;;;;;;;;;8.75;4.00;;;;;3.82;84.06;102225.38;5054678;28;47390;-68
2022/02/05 04:28:15;;;;;;;;;8.00;5.00;;;;;3.84;84.12;102228.84;5056527;28;45391;-68
2022/02/05 04:30:40;;;;;;;;;10.50;6.75;;;;;3.80;83.95;102211.47;5045525;28;45510;-68
2022/02/05 04:33:05;;;;;;;;;11.00;5.00;;;;;3.84;83.61;102225.38;5045499;28;49991;-68
2022/02/05 04:35:31;;;;;;;;;11.50;9.25;;;;;3.84;83.71;102223.66;5051924;28;46292;-68
2022/02/05 04:37:58;;;;;;;;;8.75;5.00;;;;;3.83;83.75;102216.72;5054889;28;45511;-68
2022/02/05 04:40:29;;;;;;;;;4.25;4.25;;;;;3.83;83.80;102213.25;5055257;28;45566;-68
2022/02/05 04:53:52;;;;;;;;;9.50;6.50;;;;;3.79;83.64;102220.16;5053570;28;45469;-68
2022/02/05 04:56:37;;;;;;;;;8.25;4.25;;;;;3.77;84.18;102223.59;5050418;28;46044;-68
2022/02/05 05:20:28;;;;;;;;;4.25;4.00;;;;;3.70;83.34;102237.38;5050598;28;45491;-68
2022/02/05 05:22:54;;;;;;;;;6.50;5.00;;;;;3.73;83.52;102240.03;5054072;28;45475;-68
2022/02/05 05:25:19;;;;;;;;;5.50;5.00;;;;;3.67;83.46;102230.44;5055445;28;45359;-68
2022/02/05 05:27:45;;;;;;;;;8.00;5.00;;;;;3.71;83.77;102241.72;5051839;28;46541;-68
2022/02/05 05:30:11;;;;;;;;;7.50;3.50;;;;;3.69;83.86;102249.50;5053521;28;45471;-68
2022/02/05 05:32:37;;;;;;;;;6.50;4.50;;;;;3.66;83.50;102242.56;5053857;28;45309;-68
2022/02/05 05:35:04;;;;;;;;;10.00;7.00;;;;;3.69;83.38;102248.66;5042577;28;45321;-68
2022/02/05 05:37:29;;;;;;;;;8.25;5.00;;;;;3.65;83.40;102248.63;5055278;28;47599;-68
2022/02/05 05:39:55;;;;;;;;;7.00;7.00;;;;;3.62;83.84;102250.31;5049452;28;45597;-68
2022/02/05 05:42:34;;;;;;;;;7.25;7.25;;;;;3.57;83.92;102244.22;5053464;28;45404;-67
2022/02/05 05:52:21;;;;;;;;;6.75;6.50;;;;;3.50;83.93;102247.59;5056066;27;45740;-68
2022/02/05 05:54:46;;;;;;;;;11.50;7.50;;;;;3.45;83.59;102250.16;5056902;28;45481;-67
2022/02/05 05:57:13;;;;;;;;;9.00;7.00;;;;;3.43;84.06;102253.59;5059409;27;46451;-68
2022/02/05 05:59:43;;;;;;;;;7.00;6.50;;;;;3.41;83.66;102256.16;5054085;27;45854;-68
2022/02/05 06:02:09;;;;;;;;;7.75;5.50;;;;;3.35;83.88;102253.50;5051277;28;45977;-68
2022/02/05 06:04:36;;;;;;;;;7.25;4.25;;;;;3.36;83.83;102260.44;5050532;28;45509;-68
2022/02/05 06:07:02;;;;;;;;;7.00;5.00;;;;;3.34;84.01;102256.94;5052518;28;46296;-68
2022/02/05 06:09:27;;;;;;;;;4.50;4.50;;;;;3.27;84.45;102245.63;5053731;28;46887;-68
2022/02/05 06:11:52;;;;;;;;;4.00;4.00;;;;;3.24;84.09;102245.59;5058728;28;48330;-68
2022/02/05 06:14:22;;;;;;;;;8.50;5.00;;;;;3.27;84.09;102258.59;5052502;28;45622;-68
2022/02/05 06:16:57;;;;;;;;;7.00;7.00;;;;;3.27;84.36;102261.19;5055218;28;45520;-68
2022/02/05 06:19:22;;;;;;;;;7.75;6.00;;;;;3.28;84.05;102275.94;5065143;28;46013;-68
2022/02/05 06:21:47;;;;;;;;;6.75;4.00;;;;;3.25;84.02;102272.44;5053698;28;45632;-68
2022/02/05 06:24:13;;;;;;;;;4.33;4.00;;;;;3.26;84.31;102272.47;5052155;28;50560;-68
2022/02/05 06:26:39;;;;;;;;;10.75;6.00;;;;;3.26;84.40;102279.38;5050261;28;46481;-68
2022/02/05 06:29:04;;;;;;;;;9.25;5.00;;;;;3.17;84.24;102255.88;5053083;28;45431;-68
2022/02/05 06:31:30;;;;;;;;;5.50;4.00;;;;;3.27;84.21;102281.13;5056121;28;45691;-68
2022/02/05 06:33:55;;;;;;;;;5.50;4.75;;;;;3.26;84.13;102276.78;5049765;28;45513;-68
2022/02/05 06:36:20;;;;;;;;;6.00;4.75;;;;;3.23;84.07;102281.94;5054644;27;46212;-68
2022/02/05 06:38:47;;;;;;;;;8.67;4.00;;;;;3.20;84.42;102285.38;5052188;28;56896;-68
2022/02/05 06:41:12;;;;;;;;;3.50;3.50;;;;;3.18;84.44;102284.47;5051942;28;45506;-68
2022/02/05 06:43:37;;;;;;;;;8.00;8.00;;;;;3.18;84.47;102292.25;5054358;28;45349;-68
2022/02/05 06:46:03;;;;;;;;;7.00;4.00;;;;;3.15;84.12;102292.25;5051140;28;47040;-68
2022/02/05 06:48:28;;;;;;;;;7.00;7.00;;;;;3.14;84.38;102286.19;5048498;28;45644;-68
2022/02/05 06:50:53;;;;;;;;;10.00;4.33;;;;;3.15;84.32;102292.25;5052785;28;49388;-68
2022/02/05 06:53:18;;;;;;;;;7.75;5.00;;;;;3.13;84.76;102294.84;5052564;28;45563;-68
2022/02/05 06:55:44;;;;;;;;;8.00;5.50;;;;;3.15;84.68;102305.22;5056932;28;45475;-68
2022/02/05 06:58:09;;;;;;;;;8.25;6.50;;;;;3.14;84.57;102303.50;5058061;28;45505;-68
2022/02/05 07:00:34;;;;;;;;;7.00;5.00;;;;;3.14;84.47;102301.75;5058001;27;45598;-69
2022/02/05 07:03:00;;;;;;;;;7.00;7.00;;;;;3.13;84.54;102305.22;5060496;28;45523;-68
2022/02/05 07:05:25;;;;;;;;;5.00;4.00;;;;;3.14;84.52;102308.69;5051791;28;52509;-68
2022/02/05 07:07:50;;;;;;;;;6.00;4.00;;;;;3.10;84.59;102315.56;5052859;28;45424;-68
2022/02/05 07:10:17;;;;;;;;;14.00;6.33;;;;;3.12;84.93;102323.38;5055275;28;45451;-68
2022/02/05 07:15:27;;;;;;;;;7.50;6.50;;;;;3.14;84.81;102334.66;5058036;27;45605;-67
2022/02/05 07:31:00;;;;;;;;;14.00;8.00;;;;;3.30;84.76;102347.00;5055509;28;45500;-68
2022/02/05 07:33:27;;;;;;;;;8.00;5.50;;;;;3.37;84.79;102353.13;5055306;28;45525;-68
2022/02/05 07:35:52;;;;;;;;;9.75;7.25;;;;;3.53;84.93;102356.78;5052517;28;45528;-68
2022/02/05 07:38:18;;;;;;;;;5.00;5.00;;;;;3.68;85.32;102351.78;5053422;28;45909;-68
2022/02/05 07:40:43;;;;;;;;;8.75;7.00;;;;;3.89;84.83;102351.13;5056504;28;45399;-68
2022/02/05 07:43:09;;;;;;;;;7.50;4.75;;;;;4.10;84.72;102350.47;5050737;28;45478;-68
2022/02/05 07:45:34;;;;;;;;;8.50;5.00;;;;;4.21;84.48;102335.84;5048737;28;45479;-69
2022/02/05 07:48:00;;;;;;;;;5.67;5.67;;;;;4.54;83.88;102352.59;5054340;28;53940;-69
2022/02/05 07:50:25;;;;;;;;;6.00;6.00;;;;;4.86;83.96;102352.84;5052134;28;45502;-68
2022/02/05 07:52:50;;;;;;;;;8.00;6.50;;;;;5.46;83.43;102351.41;5050346;28;46135;-68
2022/02/05 07:55:16;;;;;;;;;4.25;4.25;;;;;6.35;82.83;102352.50;5055720;28;46166;-68
2022/02/05 07:57:41;;;;;;;;;10.50;7.00;;;;;6.96;80.91;102354.22;5053264;28;45407;-68
2022/02/05 08:00:07;;;;;;;;;9.33;6.00;;;;;6.91;79.01;102351.59;5052864;28;56072;-68
2022/02/05 08:02:32;;;;;;;;;5.00;5.00;;;;;6.66;77.89;102352.50;5051581;28;45653;-68
2022/02/05 08:04:58;;;;;;;;;8.00;8.00;;;;;6.33;77.96;102350.78;5053967;28;46358;-68
2022/02/05 08:07:23;;;;;;;;;7.00;4.00;;;;;6.07;78.12;102351.63;5055836;28;45357;-68
2022/02/05 08:10:02;;;;;;;;;11.25;8.25;;;;;5.93;78.77;102363.75;5053249;28;45769;-68
2022/02/05 08:12:29;;;;;;;;;12.75;5.75;;;;;5.84;78.88;102361.97;5052746;28;45537;-68
2022/02/05 08:14:56;;;;;;;;;9.50;7.00;;;;;5.77;78.55;102357.59;5054299;28;46342;-68
2022/02/05 08:17:28;;;;;;;;;10.75;8.00;;;;;5.77;79.31;102347.16;5053164;28;45832;-68
2022/02/05 08:19:54;;;;;;;;;11.25;9.00;;;;;5.98;79.26;102341.16;5055122;28;45297;-69
2022/02/05 08:22:19;;;;;;;;;15.00;5.50;;;;;6.19;79.71;102342.94;5052684;28;45456;-68
2022/02/05 08:24:45;;;;;;;;;14.00;12.25;;;;;6.93;79.87;102344.63;5052394;28;46182;-68
2022/02/05 08:27:11;;;;;;;;;11.50;8.50;;;;;8.07;79.19;102355.47;5053294;28;45900;-69
2022/02/05 08:29:41;;;;;;;;;9.00;6.25;;;;;9.27;76.14;102350.91;5053441;28;45962;-68
2022/02/05 08:32:07;;;;;;;;;9.00;7.75;;;;;9.89;73.14;102333.47;5049753;28;45589;-68
2022/02/05 08:34:32;;;;;;;;;7.00;7.00;;;;;10.64;72.67;102328.78;5051290;28;46513;-67
2022/02/05 08:36:59;;;;;;;;;7.50;7.50;;;;;11.74;71.88;102319.56;5049257;28;45544;-67
2022/02/05 08:39:25;;;;;;;;;12.75;7.00;;;;;13.32;70.09;102321.69;5050636;28;45618;-67
2022/02/05 08:41:50;;;;;;;;;13.50;7.25;;;;;14.96;68.49;102321.66;5052769;28;45560;-68
2022/02/05 08:44:15;;;;;;;;;9.25;6.50;;;;;16.40;65.55;102324.03;5050977;28;46178;-67
2022/02/05 08:46:41;;;;;;;;;7.75;6.00;;;;;17.76;62.62;102325.06;5047213;28;45383;-68
2022/02/05 08:49:07;;;;;;;;;7.50;7.50;;;;;18.95;60.15;102325.28;5055068;28;45659;-67
2022/02/05 08:51:33;;;;;;;;;9.75;8.75;;;;;20.23;58.51;102338.63;5046604;28;45554;-68
2022/02/05 08:53:59;;;;;;;;;11.25;7.25;;;;;21.35;55.71;102329.19;5052482;28;45673;-68
2022/02/05 08:56:25;;;;;;;;;8.00;7.00;;;;;22.35;52.30;102340.53;5054389;28;45910;-67
2022/02/05 08:58:55;;;;;;;;;12.00;8.00;;;;;23.05;51.63;102334.84;5053806;28;45285;-67
2022/02/05 09:01:41;;;;;;;;;9.00;9.00;;;;;23.96;51.16;102339.91;5050176;28;45423;-68
2022/02/05 09:04:18;;;;;;;;;10.75;7.50;;;;;24.98;48.89;102326.72;5054125;28;45459;-68
2022/02/05 09:06:46;;;;;;;;;9.50;8.75;;;;;25.59;47.24;102336.28;5052623;28;45766;-68
2022/02/05 09:12:01;;;;;;;;;10.50;9.75;;;;;27.09;43.61;102348.75;5049644;28;45516;-68
2022/02/05 09:14:34;;;;;;;;;11.75;10.00;;;;;27.46;43.20;102346.38;5053649;28;45720;-68
2022/02/05 09:17:00;;;;;;;;;12.75;10.50;;;;;28.04;41.64;102362.75;5054308;28;45404;-68
2022/02/05 09:19:25;;;;;;;;;10.50;9.25;;;;;28.56;41.95;102348.97;5053615;28;45645;-68
2022/02/05 09:21:51;;;;;;;;;9.75;8.00;;;;;28.84;40.32;102339.94;5047364;28;45541;-68
2022/02/05 09:24:16;;;;;;;;;9.50;9.00;;;;;29.06;39.64;102348.72;5066510;28;47206;-68
2022/02/05 09:26:49;;;;;;;;;15.50;11.50;;;;;29.39;38.19;102350.00;5049526;28;45397;-68
2022/02/05 09:29:20;;;;;;;;;12.50;9.75;;;;;29.93;37.66;102356.44;5049362;28;45526;-68
2022/02/05 09:31:47;;;;;;;;;9.75;8.25;;;;;30.55;37.32;102343.78;5050689;28;45582;-67
2022/02/05 09:34:13;;;;;;;;;9.75;8.50;;;;;31.08;35.99;102356.38;5051766;28;46324;-67
2022/02/05 09:36:39;;;;;;;;;124.75;111.50;;;;;29.99;35.09;102347.66;5053761;28;45492;-67
2022/02/05 09:39:07;;;;;;;;;9.75;8.50;;;;;29.49;36.35;102355.38;5049718;28;45420;-67
2022/02/05 09:41:32;;;;;;;;;10.25;8.50;;;;;30.22;35.91;102353.50;5052903;28;45468;-68
2022/02/05 09:43:58;;;;;;;;;10.00;9.25;;;;;30.99;35.05;102354.63;5052434;28;45466;-68
2022/02/05 09:46:24;;;;;;;;;11.25;10.75;;;;;31.65;34.49;102350.38;5053901;28;45395;-69
2022/02/05 09:48:51;;;;;;;;;12.25;8.00;;;;;32.11;33.31;102351.69;5050703;28;45430;-70
2022/02/05 09:51:26;;;;;;;;;11.00;9.50;;;;;32.49;32.42;102343.88;5052721;28;45575;-70
2022/02/05 09:53:53;;;;;;;;;10.75;8.75;;;;;32.82;31.24;102347.41;5041972;28;46215;-69
2022/02/05 09:56:20;;;;;;;;;11.00;8.75;;;;;33.01;31.49;102356.25;5046594;28;45395;-68
2022/02/05 09:58:46;;;;;;;;;7.00;7.00;;;;;33.01;30.90;102359.81;5053949;28;45523;-68
2022/02/05 10:01:16;;;;;;;;;11.25;8.50;;;;;33.32;30.89;102369.94;5047002;28;45554;-69
2022/02/05 10:03:44;;;;;;;;;12.50;10.00;;;;;33.60;30.54;102363.00;5051541;28;47603;-68
2022/02/05 10:06:17;;;;;;;;;10.50;8.00;;;;;33.88;29.63;102363.38;5052713;28;45591;-69
2022/02/05 10:08:54;;;;;;;;;10.50;9.00;;;;;33.69;29.69;102356.50;5051486;28;46923;-68
2022/02/05 10:11:20;;;;;;;;;12.00;8.00;;;;;33.80;29.48;102362.56;5049834;28;45551;-69
2022/02/05 10:13:45;;;;;;;;;9.00;8.50;;;;;34.08;29.27;102362.91;5042815;28;49920;-69
2022/02/05 10:16:12;;;;;;;;;13.00;9.75;;;;;34.27;28.82;102359.69;5053897;28;45313;-69
2022/02/05 10:18:40;;;;;;;;;8.00;8.00;;;;;34.49;29.12;102367.03;5050935;28;45520;-69
2022/02/05 10:21:26;;;;;;;;;8.00;6.75;;;;;34.39;28.16;102373.75;5052657;28;45461;-70
2022/02/05 10:24:04;;;;;;;;;9.75;6.00;;;;;34.18;27.30;102366.25;5052929;28;46792;-69
2022/02/05 10:26:39;;;;;;;;;8.75;6.00;;;;;33.64;28.33;102363.50;5044400;28;45654;-69
2022/02/05 10:29:09;;;;;;;;;10.75;6.75;;;;;33.18;28.46;102368.78;5048334;28;45367;-68
2022/02/05 10:31:53;;;;;;;;;12.75;7.75;;;;;32.38;28.51;102374.16;5047517;28;45394;-68
2022/02/05 10:34:19;;;;;;;;;11.50;10.00;;;;;31.33;28.73;102365.53;5049700;28;46327;-68
2022/02/05 10:36:46;;;;;;;;;5.75;5.75;;;;;30.47;30.01;102375.44;5048236;28;45510;-68
2022/02/05 10:39:15;;;;;;;;;5.75;5.00;;;;;29.78;30.63;102379.63;5046745;28;45434;-68
2022/02/05 10:44:32;;;;;;;;;7.25;5.50;;;;;28.32;31.21;102388.06;5046770;28;46274;-68
2022/02/05 10:46:58;;;;;;;;;5.75;5.00;;;;;27.30;32.42;102386.50;5048798;28;45438;-68
2022/02/05 10:49:50;;;;;;;;;7.50;6.00;;;;;26.05;32.53;102384.56;5050441;28;45728;-68
2022/02/05 10:52:34;;;;;;;;;5.50;4.00;;;;;24.79;34.31;102399.03;5053942;28;45432;-68
2022/02/05 10:55:21;;;;;;;;;5.50;5.50;;;;;24.01;34.29;102396.84;5055237;28;46084;-68
2022/02/05 11:08:12;;;;;;;;;7.75;5.25;;;;;21.27;38.02;102407.22;5051323;28;45752;-68
2022/02/05 11:19:02;;;;;;;;;4.00;4.00;;;;;21.41;38.91;102401.06;5056532;28;45300;-67
2022/02/05 11:21:30;;;;;;;;;5.50;4.00;;;;;21.56;39.28;102400.09;5061709;28;45466;-67
2022/02/05 11:23:59;;;;;;;;;6.50;4.00;;;;;21.67;38.97;102396.75;5059154;27;45359;-67
2022/02/05 11:26:25;;;;;;;;;5.25;3.75;;;;;21.60;39.19;102396.25;5053841;28;45461;-67
2022/02/05 11:28:55;;;;;;;;;3.50;3.50;;;;;21.37;39.02;102383.47;5055195;27;45455;-68
2022/02/05 11:31:31;;;;;;;;;3.75;2.00;;;;;20.80;38.75;102386.91;5057465;28;45484;-67
2022/02/05 11:34:22;;;;;;;;;3.00;3.00;;;;;19.91;39.25;102392.97;5055630;28;45520;-67
2022/02/05 11:36:59;;;;;;;;;6.75;2.25;;;;;19.21;40.35;102400.28;5055909;28;48184;-67
2022/02/05 11:39:25;;;;;;;;;1.25;1.25;;;;;18.94;41.25;102384.81;5055265;28;45713;-67
2022/02/05 11:41:51;;;;;;;;;3.75;2.00;;;;;18.72;41.25;102382.38;5071302;27;45618;-66
2022/02/05 11:44:16;;;;;;;;;1.00;1.00;;;;;18.69;41.08;102374.56;5053684;28;45722;-67
2022/02/05 11:47:01;;;;;;;;;3.00;1.00;;;;;18.58;41.38;102381.31;5055046;27;45628;-66
2022/02/05 11:49:52;;;;;;;;;1.00;0.50;;;;;18.05;42.08;102372.38;5058083;28;45615;-67
2022/02/05 11:52:35;;;;;;;;;1.00;1.00;;;;;17.69;43.00;102377.63;5068880;28;45446;-67
2022/02/05 11:55:14;;;;;;;;;2.50;2.00;;;;;17.58;43.06;102386.09;5066375;27;45535;-67
2022/02/05 11:57:46;;;;;;;;;3.00;3.00;;;;;17.45;43.39;102383.16;5050842;28;47111;-67
2022/02/05 12:00:20;;;;;;;;;3.00;2.00;;;;;17.21;43.45;102385.09;5054634;28;45742;-67
2022/02/05 12:02:57;;;;;;;;;2.00;1.00;;;;;17.18;44.30;102376.44;5054734;28;45454;-67
2022/02/05 12:05:27;;;;;;;;;4.00;1.00;;;;;17.03;43.91;102374.44;5050067;28;45439;-67
2022/02/05 12:08:03;;;;;;;;;2.75;1.50;;;;;17.13;44.32;102365.16;5049851;28;46405;-67
2022/02/05 12:10:40;;;;;;;;;2.00;1.00;;;;;17.26;43.78;102352.16;5056647;28;45667;-67
2022/02/05 12:13:17;;;;;;;;;4.75;2.00;;;;;17.43;44.46;102354.91;5056630;28;45539;-67
2022/02/05 12:15:44;;;;;;;;;2.50;1.50;;;;;17.57;44.33;102356.94;5053093;28;45538;-67
2022/02/05 12:21:15;;;;;;;;;1.00;0.75;;;;;17.67;44.21;102347.59;5049569;28;45844;-67
2022/02/05 12:26:14;;;;;;;;;0.00;0.00;;;;;17.24;43.87;102349.59;5051265;28;45654;-67
2022/02/05 12:28:41;;;;;;;;;2.75;1.00;;;;;17.02;43.25;102347.03;5050595;28;46209;-66
2022/02/05 12:31:30;;;;;;;;;1.25;1.25;;;;;16.82;44.29;102345.25;5045470;28;45878;-66
2022/02/05 12:34:08;;;;;;;;;2.00;1.75;;;;;16.67;44.68;102345.88;5044321;28;46807;-66
2022/02/05 12:36:38;;;;;;;;;2.00;0.75;;;;;16.53;43.74;102350.91;5048405;28;45708;-66
2022/02/05 12:39:15;;;;;;;;;1.00;1.00;;;;;16.41;44.74;102344.31;5045148;28;46521;-67
2022/02/05 12:41:47;;;;;;;;;1.75;1.00;;;;;16.32;44.52;102345.56;5051547;28;45470;-66
2022/02/05 12:44:13;;;;;;;;;2.50;1.00;;;;;16.08;45.28;102328.00;5044887;28;45714;-67
2022/02/05 12:46:51;;;;;;;;;1.00;1.00;;;;;16.11;45.80;102341.13;5049389;28;45843;-67
2022/02/05 12:49:22;;;;;;;;;2.00;1.00;;;;;15.99;45.03;102331.91;5055540;28;46719;-67
2022/02/05 12:51:49;;;;;;;;;0.75;0.75;;;;;15.87;45.03;102335.03;5054326;28;45611;-66
2022/02/05 12:54:20;;;;;;;;;0.00;0.00;;;;;15.72;45.68;102333.00;5052516;28;45641;-67
2022/02/05 12:56:47;;;;;;;;;1.00;1.00;;;;;15.57;45.23;102326.47;5052821;28;45492;-66
2022/02/05 12:59:16;;;;;;;;;0.75;0.75;;;;;15.51;45.63;102330.22;5052388;28;45536;-67
2022/02/05 13:01:52;;;;;;;;;3.50;2.00;;;;;15.45;45.57;102340.16;5051848;28;45828;-67
2022/02/05 13:04:20;;;;;;;;;1.00;0.75;;;;;15.32;45.09;102339.75;5053693;28;45405;-68
2022/02/05 13:07:01;;;;;;;;;3.00;1.00;;;;;15.14;45.56;102314.84;5054858;28;45852;-68
2022/02/05 13:09:31;;;;;;;;;2.75;1.00;;;;;14.98;46.01;102338.38;5053035;28;46614;-68
2022/02/05 13:12:00;;;;;;;;;3.50;1.00;;;;;14.71;46.47;102337.53;5053639;28;45392;-68
2022/02/05 13:14:46;;;;;;;;;1.25;1.00;;;;;14.38;46.44;102339.50;5052110;28;45543;-68
2022/02/05 13:36:22;;;;;;;;;0.00;0.00;;;;;14.96;45.64;102307.56;5052530;28;45427;-70
2022/02/05 13:41:37;;;;;;;;;2.50;0.25;;;;;14.96;45.77;102304.91;5052262;28;46125;-70
2022/02/05 13:44:03;;;;;;;;;1.00;1.00;;;;;14.85;45.58;102310.59;5058950;28;45863;-71
2022/02/05 13:46:28;;;;;;;;;3.25;0.50;;;;;14.73;45.39;102297.81;5055697;28;45769;-70
2022/02/05 13:48:53;;;;;;;;;1.50;1.00;;;;;14.69;45.18;102298.81;5053246;28;45433;-71
2022/02/05 13:51:19;;;;;;;;;1.00;1.00;;;;;14.54;44.73;102305.50;5054870;28;52628;-70
2022/02/05 13:53:49;;;;;;;;;2.75;1.00;;;;;14.39;44.84;102298.06;5053290;28;45626;-70
2022/02/05 13:56:14;;;;;;;;;1.25;1.25;;;;;14.16;44.97;102291.75;5051638;28;45738;-70
2022/02/05 13:58:40;;;;;;;;;4.00;1.00;;;;;13.96;44.53;102295.06;5053709;28;45811;-70
2022/02/05 14:01:06;;;;;;;;;1.00;1.00;;;;;13.78;44.58;102287.69;5052900;28;45593;-70
2022/02/05 14:03:37;;;;;;;;;0.75;0.75;;;;;13.62;44.58;102284.66;5052077;28;45431;-69
2022/02/05 14:06:14;;;;;;;;;2.25;0.25;;;;;13.47;45.40;102293.09;5052933;28;45581;-69
2022/02/05 14:08:46;;;;;;;;;1.00;0.00;;;;;13.42;45.04;102298.50;5053155;28;45633;-70
2022/02/05 14:11:14;;;;;;;;;0.50;0.00;;;;;13.33;45.87;102285.56;5051604;28;46406;-69
2022/02/05 14:13:41;;;;;;;;;1.00;0.00;;;;;13.30;45.64;102291.78;5052847;28;45517;-69
2022/02/05 14:16:09;;;;;;;;;1.50;1.00;;;;;13.26;45.77;102287.53;5053302;28;45382;-69
2022/02/05 14:18:49;;;;;;;;;3.00;1.00;;;;;13.19;46.47;102291.22;5053029;28;45571;-69
2022/02/05 14:21:14;;;;;;;;;1.00;0.00;;;;;13.13;46.00;102294.03;5053292;28;47451;-67
2022/02/05 14:23:53;;;;;;;;;2.00;0.00;;;;;13.12;46.62;102292.31;5052516;28;45475;-68
2022/02/05 14:26:31;;;;;;;;;0.75;0.75;;;;;13.03;47.24;102274.09;5051463;28;45454;-68
2022/02/05 14:28:58;;;;;;;;;0.00;0.00;;;;;13.01;46.98;102281.19;5051385;28;45633;-68
2022/02/05 14:31:41;;;;;;;;;0.25;0.25;;;;;12.96;46.86;102277.81;5054262;28;46671;-68
2022/02/05 14:34:14;;;;;;;;;0.00;0.00;;;;;12.89;45.92;102286.81;5051825;28;45402;-67
2022/02/05 14:42:03;;;;;;;;;1.50;0.00;;;;;12.59;45.67;102293.81;5051525;28;45778;-67
2022/02/05 14:44:28;;;;;;;;;1.00;1.00;;;;;12.51;46.15;102296.63;5052487;28;45745;-67
2022/02/05 14:46:53;;;;;;;;;1.75;0.25;;;;;12.31;46.14;102276.03;5051398;28;45899;-67
2022/02/05 14:49:19;;;;;;;;;3.00;0.75;;;;;12.41;46.29;102295.13;5052679;28;46792;-67
2022/02/05 14:51:45;;;;;;;;;2.00;0.00;;;;;12.37;44.82;102291.72;5051650;28;45587;-67
2022/02/05 14:54:11;;;;;;;;;0.00;0.00;;;;;12.31;45.49;102291.00;5051648;28;45415;-67
2022/02/05 14:56:36;;;;;;;;;0.50;0.50;;;;;12.23;45.21;102288.56;5052426;28;45707;-67
2022/02/05 14:59:06;;;;;;;;;1.00;1.00;;;;;12.18;45.97;102296.56;5051165;28;45531;-67